Time;durP1;ratioP1;P1;durP2;ratioP2;P2;SDS_P1;SDS_P2;PMS_P1;PMS_P2;Temp;Humidity;BMP_temperature;BMP_pressure;BME280_temperature;BME280_humidity;BME280_pressure;Samples;Min_cycle;Max_cycle;Signal;HPM_P1;HPM_P2
2024/01/05 00:00:42;;;;;;;7.50;1.67;;;7.40;99.90;;;;;;5032018;28;20455;-54
2024/01/05 00:03:07;;;;;;;6.93;1.63;;;7.40;99.90;;;;;;5032093;28;20084;-56
2024/01/05 00:05:35;;;;;;;6.37;0.83;;;7.40;99.90;;;;;;5032377;28;20418;-51
2024/01/05 00:08:01;;;;;;;6.20;2.07;;;7.40;99.90;;;;;;5032148;28;20420;-56
2024/01/05 00:10:26;;;;;;;5.83;1.00;;;7.40;99.90;;;;;;5031823;28;20025;-53
2024/01/05 00:12:52;;;;;;;12.50;1.20;;;7.40;99.90;;;;;;5032014;28;20045;-51
2024/01/05 00:15:18;;;;;;;3.30;0.87;;;7.50;99.90;;;;;;5031975;28;20044;-52
2024/01/05 00:17:43;;;;;;;5.60;1.20;;;7.50;99.90;;;;;;5031732;28;20037;-57
2024/01/05 00:20:10;;;;;;;9.23;1.20;;;7.50;99.90;;;;;;5031752;28;20037;-56
2024/01/05 00:22:36;;;;;;;5.40;1.27;;;7.50;99.90;;;;;;5031818;28;20562;-54
2024/01/05 00:25:03;;;;;;;7.73;1.43;;;7.60;99.90;;;;;;5030515;28;20108;-56
2024/01/05 00:27:29;;;;;;;11.40;1.63;;;7.60;99.90;;;;;;5031841;28;20450;-53
2024/01/05 00:29:55;;;;;;;4.53;1.00;;;7.60;99.90;;;;;;5031618;28;20056;-55
2024/01/05 00:32:21;;;;;;;2.70;0.80;;;7.60;99.90;;;;;;5031704;28;20471;-53
2024/01/05 00:34:47;;;;;;;11.33;1.40;;;7.60;99.90;;;;;;5031901;28;20041;-55
2024/01/05 00:37:12;;;;;;;7.73;1.20;;;7.70;99.90;;;;;;5031854;28;20029;-54
2024/01/05 00:39:38;;;;;;;5.03;1.53;;;7.70;99.90;;;;;;5031474;28;20153;-50
2024/01/05 00:42:05;;;;;;;5.27;0.90;;;7.70;99.90;;;;;;5031615;28;20032;-55
2024/01/05 00:44:31;;;;;;;6.97;1.13;;;7.80;99.90;;;;;;5031726;28;20653;-51
2024/01/05 00:46:56;;;;;;;7.37;1.17;;;7.70;99.90;;;;;;5031648;28;20036;-54
2024/01/05 00:49:22;;;;;;;8.87;1.07;;;7.70;99.90;;;;;;5031412;28;20387;-55
2024/01/05 00:51:47;;;;;;;9.47;1.67;;;7.80;99.90;;;;;;5033788;28;20060;-53
2024/01/05 00:54:13;;;;;;;9.37;1.30;;;7.70;99.90;;;;;;5035456;28;20033;-53
2024/01/05 00:56:39;;;;;;;10.03;1.57;;;7.70;99.90;;;;;;5035765;28;20029;-54
2024/01/05 00:59:06;;;;;;;12.30;1.30;;;7.80;99.90;;;;;;5035248;28;20026;-52
2024/01/05 01:01:32;;;;;;;7.90;1.43;;;7.90;99.90;;;;;;5034255;28;20057;-54
2024/01/05 01:03:57;;;;;;;10.73;1.10;;;7.80;99.90;;;;;;5035547;28;20213;-56
2024/01/05 01:06:23;;;;;;;10.00;1.40;;;7.80;99.90;;;;;;5035439;28;20029;-55
2024/01/05 01:08:49;;;;;;;3.63;1.03;;;7.80;99.90;;;;;;5035045;28;20040;-52
2024/01/05 01:11:15;;;;;;;9.60;1.40;;;7.90;99.90;;;;;;5035322;28;20033;-52
2024/01/05 01:13:42;;;;;;;6.13;1.47;;;7.90;99.90;;;;;;5035215;28;20032;-55
2024/01/05 01:16:08;;;;;;;5.33;1.20;;;8.00;99.90;;;;;;5017423;28;20379;-56
2024/01/05 01:18:33;;;;;;;6.43;1.23;;;8.00;99.90;;;;;;5034949;28;20040;-53
2024/01/05 01:20:59;;;;;;;7.20;1.30;;;8.00;99.90;;;;;;5035124;28;20026;-54
2024/01/05 01:23:24;;;;;;;9.73;1.63;;;8.00;99.90;;;;;;5035029;28;20495;-56
2024/01/05 01:25:50;;;;;;;7.70;1.60;;;8.00;99.90;;;;;;5035477;28;20482;-55
2024/01/05 01:28:15;;;;;;;4.73;0.80;;;8.00;99.90;;;;;;5035005;28;20029;-55
2024/01/05 01:30:41;;;;;;;5.60;1.40;;;8.10;99.90;;;;;;5034802;28;20144;-56
2024/01/05 01:33:07;;;;;;;7.23;1.50;;;8.10;99.90;;;;;;5034842;28;20037;-51
2024/01/05 01:35:32;;;;;;;4.67;1.57;;;8.00;99.90;;;;;;5033650;28;20107;-51
2024/01/05 01:37:58;;;;;;;3.87;0.73;;;8.10;99.90;;;;;;5034796;28;20033;-55
2024/01/05 01:40:25;;;;;;;4.50;1.20;;;8.10;99.90;;;;;;5034543;28;20398;-55
2024/01/05 01:42:51;;;;;;;7.37;1.10;;;8.20;99.90;;;;;;5035121;28;20030;-54
2024/01/05 01:45:16;;;;;;;8.27;1.13;;;8.10;99.90;;;;;;5034741;28;20028;-55
2024/01/05 01:47:43;;;;;;;3.27;1.10;;;8.10;99.90;;;;;;5034616;28;20446;-55
2024/01/05 01:50:09;;;;;;;5.30;1.10;;;8.10;99.90;;;;;;5034459;28;20064;-55
2024/01/05 01:52:37;;;;;;;7.97;1.20;;;8.10;99.90;;;;;;5034428;28;20513;-51
2024/01/05 01:55:03;;;;;;;7.07;1.30;;;8.00;99.90;;;;;;5034399;28;20486;-54
2024/01/05 01:57:30;;;;;;;7.23;1.37;;;8.00;99.90;;;;;;5034334;28;20025;-54
2024/01/05 01:59:56;;;;;;;6.03;1.23;;;7.90;99.90;;;;;;5034196;28;20033;-55
2024/01/05 02:02:22;;;;;;;6.60;1.20;;;7.90;99.90;;;;;;5033440;28;20044;-52
2024/01/05 02:04:50;;;;;;;2.57;0.90;;;7.90;99.90;;;;;;5034164;28;20037;-55
2024/01/05 02:07:16;;;;;;;5.83;1.00;;;7.90;99.90;;;;;;5034275;28;20033;-55
2024/01/05 02:09:42;;;;;;;3.73;1.10;;;7.90;99.90;;;;;;5033943;28;20045;-55
2024/01/05 02:12:08;;;;;;;3.97;0.93;;;7.90;99.90;;;;;;5034062;28;20391;-52
2024/01/05 02:14:34;;;;;;;6.70;1.13;;;7.90;99.90;;;;;;5034102;28;20030;-54
2024/01/05 02:16:59;;;;;;;3.17;0.70;;;7.90;99.90;;;;;;5034105;28;20033;-55
2024/01/05 02:19:25;;;;;;;9.13;1.30;;;7.90;99.90;;;;;;5033818;28;20033;-54
2024/01/05 02:21:54;;;;;;;4.80;0.70;;;7.90;99.90;;;;;;5033884;28;20029;-51
2024/01/05 02:24:20;;;;;;;8.75;1.20;;;7.90;99.90;;;;;;5033966;28;20470;-54
2024/01/05 02:26:46;;;;;;;2.67;1.20;;;7.80;99.90;;;;;;5033916;28;20040;-55
2024/01/05 02:29:13;;;;;;;6.57;1.00;;;7.80;99.90;;;;;;5033697;28;20115;-55
2024/01/05 02:31:39;;;;;;;4.97;1.03;;;7.80;99.90;;;;;;5033774;28;20228;-55
2024/01/05 02:34:05;;;;;;;3.27;1.10;;;7.80;99.90;;;;;;5033874;28;20382;-52
2024/01/05 02:36:30;;;;;;;5.33;0.90;;;7.80;99.90;;;;;;5033800;28;20029;-55
2024/01/05 02:38:56;;;;;;;6.70;0.83;;;7.80;99.90;;;;;;5033339;28;20026;-54
2024/01/05 02:41:22;;;;;;;6.27;1.00;;;7.80;99.90;;;;;;5033569;28;20376;-55
2024/01/05 02:43:47;;;;;;;6.67;1.00;;;7.80;99.90;;;;;;5033661;28;20052;-55
2024/01/05 02:46:13;;;;;;;3.30;0.97;;;7.80;99.90;;;;;;5033553;28;20055;-55
2024/01/05 02:48:40;;;;;;;3.97;1.13;;;7.80;99.90;;;;;;5033103;28;20045;-55
2024/01/05 02:51:05;;;;;;;4.30;1.00;;;7.80;99.90;;;;;;5033820;28;20109;-54
2024/01/05 02:53:31;;;;;;;13.30;2.10;;;7.70;99.90;;;;;;5033803;28;20037;-53
2024/01/05 02:55:56;;;;;;;6.43;1.27;;;7.70;99.90;;;;;;5033424;28;20053;-52
2024/01/05 02:58:22;;;;;;;6.67;1.10;;;7.70;99.90;;;;;;5033244;28;20120;-53
2024/01/05 03:00:47;;;;;;;4.93;1.00;;;7.70;99.90;;;;;;5033239;28;20026;-55
2024/01/05 03:03:13;;;;;;;5.90;1.33;;;7.70;99.90;;;;;;5033175;28;20032;-55
2024/01/05 03:05:39;;;;;;;5.93;1.00;;;7.70;99.90;;;;;;5033232;28;20048;-55
2024/01/05 03:08:06;;;;;;;4.43;1.53;;;7.70;99.90;;;;;;5033170;28;20033;-56
2024/01/05 03:10:31;;;;;;;7.20;1.23;;;7.60;99.90;;;;;;5032897;28;20390;-52
2024/01/05 03:12:57;;;;;;;8.63;0.90;;;7.60;99.90;;;;;;5031913;28;20029;-55
2024/01/05 03:15:23;;;;;;;7.43;1.20;;;7.60;99.90;;;;;;5032921;28;20505;-56
2024/01/05 03:17:48;;;;;;;6.33;1.17;;;7.70;99.90;;;;;;5032860;28;20026;-54
2024/01/05 03:20:16;;;;;;;3.83;1.13;;;7.60;99.90;;;;;;5031553;28;20402;-55
2024/01/05 03:22:41;;;;;;;3.40;0.80;;;7.60;99.90;;;;;;5032793;28;20034;-53
2024/01/05 03:25:07;;;;;;;3.63;0.77;;;7.60;99.90;;;;;;5032790;28;20029;-55
2024/01/05 03:27:33;;;;;;;7.60;1.77;;;7.60;99.90;;;;;;5032857;28;20124;-55
2024/01/05 03:29:59;;;;;;;8.13;1.00;;;7.50;99.90;;;;;;5032772;28;20248;-53
2024/01/05 03:32:24;;;;;;;5.83;0.93;;;7.50;99.90;;;;;;5032658;28;20040;-56
2024/01/05 03:34:50;;;;;;;7.00;1.33;;;7.50;99.90;;;;;;5032586;28;20032;-55
2024/01/05 03:37:15;;;;;;;4.57;1.03;;;7.60;99.90;;;;;;5032584;28;20036;-52
2024/01/05 03:39:41;;;;;;;6.23;1.43;;;7.50;99.90;;;;;;5032369;28;20463;-56
2024/01/05 03:42:07;;;;;;;4.10;0.97;;;7.50;99.90;;;;;;5032591;28;20109;-51
2024/01/05 03:44:32;;;;;;;8.00;1.63;;;7.50;99.90;;;;;;5032659;28;20049;-55
2024/01/05 03:46:58;;;;;;;7.90;1.23;;;7.50;99.90;;;;;;5032454;28;20025;-54
2024/01/05 03:49:23;;;;;;;6.50;1.20;;;7.50;99.90;;;;;;5030930;28;20037;-56
2024/01/05 03:51:49;;;;;;;6.23;1.10;;;7.60;99.90;;;;;;5032268;28;20033;-54
2024/01/05 03:54:14;;;;;;;5.43;1.20;;;7.60;99.90;;;;;;5030956;28;20057;-55
2024/01/05 03:56:41;;;;;;;3.73;1.03;;;7.60;99.90;;;;;;5032536;28;20510;-54
2024/01/05 03:59:07;;;;;;;8.70;1.30;;;7.60;99.90;;;;;;5031982;28;20052;-56
2024/01/05 04:01:33;;;;;;;6.17;1.30;;;7.60;99.90;;;;;;5032158;28;20071;-56
2024/01/05 04:03:59;;;;;;;4.47;0.80;;;7.70;99.90;;;;;;5032154;28;20441;-55
2024/01/05 04:06:25;;;;;;;9.43;1.20;;;7.80;99.90;;;;;;5032189;28;20029;-54
2024/01/05 04:08:51;;;;;;;3.57;1.10;;;7.90;99.90;;;;;;5031801;28;20083;-55
2024/01/05 04:11:20;;;;;;;3.27;0.90;;;8.00;99.90;;;;;;5032076;28;20108;-56
2024/01/05 04:13:47;;;;;;;7.43;0.77;;;8.00;99.90;;;;;;5031976;28;20044;-55
2024/01/05 04:16:13;;;;;;;4.83;0.80;;;8.00;99.90;;;;;;5032120;28;20113;-52
2024/01/05 04:18:39;;;;;;;5.50;0.83;;;8.00;99.90;;;;;;5031680;28;20033;-56
2024/01/05 04:21:05;;;;;;;4.63;0.80;;;8.00;99.90;;;;;;5031995;28;20433;-56
2024/01/05 04:23:30;;;;;;;6.97;1.00;;;8.00;99.90;;;;;;5031925;28;20544;-53
2024/01/05 04:25:56;;;;;;;6.27;0.87;;;8.00;99.90;;;;;;5030482;28;20022;-55
2024/01/05 04:28:21;;;;;;;6.63;1.17;;;8.10;99.90;;;;;;5031774;28;20029;-55
2024/01/05 04:30:47;;;;;;;1.47;0.90;;;8.10;99.90;;;;;;5032145;28;20379;-56
2024/01/05 04:33:13;;;;;;;6.80;1.03;;;8.20;99.90;;;;;;5031795;28;20033;-54
2024/01/05 04:35:38;;;;;;;5.07;0.90;;;8.20;99.90;;;;;;5032198;28;20037;-54
2024/01/05 04:38:04;;;;;;;5.33;1.17;;;8.20;99.90;;;;;;5031688;28;20029;-55
2024/01/05 04:40:29;;;;;;;8.07;1.60;;;8.20;99.90;;;;;;5030368;28;20040;-56
2024/01/05 04:42:55;;;;;;;6.60;1.60;;;8.30;99.90;;;;;;5031916;28;20109;-56
2024/01/05 04:45:20;;;;;;;5.77;1.20;;;8.30;99.90;;;;;;5030851;28;20487;-56
2024/01/05 04:47:46;;;;;;;7.57;2.93;;;8.40;99.90;;;;;;5031704;28;20038;-56
2024/01/05 04:50:12;;;;;;;8.70;1.10;;;8.40;99.90;;;;;;5031429;28;20112;-55
2024/01/05 04:52:38;;;;;;;4.47;1.43;;;8.40;99.90;;;;;;5031504;28;20406;-55
2024/01/05 04:55:04;;;;;;;2.60;0.73;;;8.40;99.90;;;;;;5031698;28;20045;-56
2024/01/05 04:57:30;;;;;;;2.83;0.60;;;8.50;99.90;;;;;;5031691;28;20025;-54
2024/01/05 04:59:56;;;;;;;8.03;1.20;;;8.50;99.90;;;;;;5031489;28;20513;-54
2024/01/05 05:02:22;;;;;;;4.90;0.90;;;8.40;99.90;;;;;;5031778;28;20461;-52
2024/01/05 05:04:48;;;;;;;4.93;0.90;;;8.40;99.90;;;;;;5031712;28;20064;-55
2024/01/05 05:07:14;;;;;;;6.40;0.90;;;8.50;99.90;;;;;;5031615;28;20053;-55
2024/01/05 05:09:40;;;;;;;3.30;0.73;;;8.50;99.90;;;;;;5031293;28;20076;-55
2024/01/05 05:12:06;;;;;;;4.87;1.00;;;8.40;99.90;;;;;;5031485;28;20490;-50
2024/01/05 05:14:31;;;;;;;1.93;0.90;;;8.40;99.90;;;;;;5030179;28;20048;-55
2024/01/05 05:16:57;;;;;;;6.03;1.80;;;8.40;99.90;;;;;;5031488;28;20026;-55
2024/01/05 05:19:22;;;;;;;5.47;0.93;;;8.40;99.90;;;;;;5031036;28;20124;-54
2024/01/05 05:21:48;;;;;;;4.93;1.20;;;8.30;99.90;;;;;;5031258;28;20021;-54
2024/01/05 05:24:14;;;;;;;4.43;0.60;;;8.40;99.90;;;;;;5031444;28;20494;-54
2024/01/05 05:26:41;;;;;;;4.50;1.10;;;8.40;99.90;;;;;;5031481;28;20029;-53
2024/01/05 05:29:07;;;;;;;5.73;1.07;;;8.40;99.90;;;;;;5030105;28;20076;-55
2024/01/05 05:31:32;;;;;;;4.07;0.70;;;8.40;99.90;;;;;;5031258;28;20529;-56
2024/01/05 05:33:58;;;;;;;6.37;1.10;;;8.40;99.90;;;;;;5031707;28;20029;-55
2024/01/05 05:36:24;;;;;;;4.77;0.90;;;8.40;99.90;;;;;;5031319;28;20489;-53
2024/01/05 05:38:50;;;;;;;4.93;0.93;;;8.30;99.90;;;;;;5033037;28;20029;-56
2024/01/05 05:41:15;;;;;;;7.40;0.97;;;8.40;99.90;;;;;;5034754;28;20045;-56
2024/01/05 05:43:41;;;;;;;2.83;0.70;;;8.30;99.90;;;;;;5034756;28;20478;-55
2024/01/05 05:46:06;;;;;;;4.73;1.47;;;8.30;99.90;;;;;;5035100;28;20203;-56
2024/01/05 05:48:32;;;;;;;3.57;1.00;;;8.30;99.90;;;;;;5034506;28;20079;-55
2024/01/05 05:50:58;;;;;;;3.00;0.87;;;8.20;99.90;;;;;;5034478;28;20029;-54
2024/01/05 05:53:24;;;;;;;6.00;1.70;;;8.20;99.90;;;;;;5034475;28;20105;-56
2024/01/05 05:55:49;;;;;;;6.13;1.30;;;8.20;99.90;;;;;;5034534;28;20502;-56
2024/01/05 05:58:15;;;;;;;6.90;1.50;;;8.20;99.90;;;;;;5034504;28;20112;-55
2024/01/05 06:00:40;;;;;;;7.00;1.00;;;8.30;99.90;;;;;;5034382;28;20029;-55
2024/01/05 06:03:06;;;;;;;4.57;0.93;;;8.20;99.90;;;;;;5034263;28;20026;-55
2024/01/05 06:05:32;;;;;;;5.37;1.23;;;8.20;99.90;;;;;;5034429;28;20034;-52
2024/01/05 06:07:57;;;;;;;4.67;0.60;;;8.20;99.90;;;;;;5034327;28;20025;-55
2024/01/05 06:10:23;;;;;;;4.40;1.10;;;8.20;99.90;;;;;;5034146;28;20033;-56
2024/01/05 06:12:48;;;;;;;5.03;1.00;;;8.30;99.90;;;;;;5034287;28;20513;-54
2024/01/05 06:15:14;;;;;;;5.33;1.20;;;8.20;99.90;;;;;;5034168;28;20030;-56
2024/01/05 06:17:40;;;;;;;9.03;0.97;;;8.20;99.90;;;;;;5034079;28;20057;-56
2024/01/05 06:20:08;;;;;;;3.20;0.57;;;8.20;99.90;;;;;;5033840;28;20029;-55
2024/01/05 06:22:33;;;;;;;2.83;0.80;;;8.20;99.90;;;;;;5034039;28;20091;-53
2024/01/05 06:24:59;;;;;;;2.73;1.13;;;8.20;99.90;;;;;;5034074;28;20037;-56
2024/01/05 06:27:24;;;;;;;3.03;0.63;;;8.10;99.90;;;;;;5033977;28;20474;-55
2024/01/05 06:29:50;;;;;;;5.07;1.10;;;8.20;99.90;;;;;;5032547;28;20037;-55
2024/01/05 06:32:16;;;;;;;8.80;1.13;;;8.30;99.90;;;;;;5033756;28;20033;-54
2024/01/05 06:34:41;;;;;;;5.23;1.80;;;8.30;99.90;;;;;;5033629;28;20039;-54
2024/01/05 06:37:07;;;;;;;3.20;0.80;;;8.40;99.90;;;;;;5033751;28;20034;-55
2024/01/05 06:39:32;;;;;;;5.03;1.00;;;8.40;99.90;;;;;;5033446;28;20029;-54
2024/01/05 06:41:58;;;;;;;4.23;1.13;;;8.40;99.90;;;;;;5033582;28;20486;-52
2024/01/05 06:44:23;;;;;;;8.47;1.07;;;8.50;99.90;;;;;;5033597;28;20044;-53
2024/01/05 06:46:50;;;;;;;6.07;1.00;;;8.50;99.90;;;;;;5033593;28;20091;-52
2024/01/05 06:49:16;;;;;;;1.60;0.70;;;8.50;99.90;;;;;;5032755;28;20029;-51
2024/01/05 06:51:42;;;;;;;3.77;0.97;;;8.50;99.90;;;;;;5032220;28;20064;-55
2024/01/05 06:54:08;;;;;;;5.23;0.93;;;8.50;99.90;;;;;;5033328;28;20029;-54
2024/01/05 06:56:34;;;;;;;4.43;1.10;;;8.50;99.90;;;;;;5033353;28;20068;-55
2024/01/05 06:59:04;;;;;;;3.63;0.93;;;8.50;99.90;;;;;;5031931;28;20069;-53
2024/01/05 07:01:31;;;;;;;5.27;1.43;;;8.50;99.90;;;;;;5033198;28;20431;-54
2024/01/05 07:03:57;;;;;;;5.87;1.17;;;8.50;99.90;;;;;;5033191;28;20033;-52
2024/01/05 07:06:23;;;;;;;5.50;1.10;;;8.50;99.90;;;;;;5033437;28;20037;-56
2024/01/05 07:08:48;;;;;;;5.40;1.00;;;8.50;99.90;;;;;;5032843;28;20044;-54
2024/01/05 07:11:24;;;;;;;4.70;1.13;;;8.60;99.90;;;;;;5033098;28;20029;-55
2024/01/05 07:13:50;;;;;;;4.03;0.90;;;8.60;99.90;;;;;;5033034;28;20376;-53
2024/01/05 07:16:20;;;;;;;1.90;0.70;;;8.70;99.90;;;;;;5032948;28;20116;-56
2024/01/05 07:18:47;;;;;;;3.77;0.90;;;8.70;99.90;;;;;;5032656;28;20029;-56
2024/01/05 07:21:13;;;;;;;1.60;0.70;;;8.70;99.90;;;;;;5032919;28;20100;-51
2024/01/05 07:23:39;;;;;;;3.20;1.00;;;8.70;99.90;;;;;;5032766;28;20037;-55
2024/01/05 07:26:05;;;;;;;4.20;1.20;;;8.70;99.90;;;;;;5032785;28;20120;-55
2024/01/05 07:28:30;;;;;;;6.13;1.07;;;8.80;99.90;;;;;;5032569;28;20108;-52
2024/01/05 07:30:56;;;;;;;2.80;0.90;;;8.90;99.90;;;;;;5032473;28;20037;-50
2024/01/05 07:33:22;;;;;;;3.17;0.83;;;8.90;99.90;;;;;;5032616;28;20029;-53
2024/01/05 07:35:48;;;;;;;3.47;1.53;;;8.90;99.90;;;;;;5032626;28;20124;-55
2024/01/05 07:38:14;;;;;;;3.30;1.00;;;9.00;99.90;;;;;;5032526;28;20037;-54
2024/01/05 07:40:39;;;;;;;3.03;0.90;;;9.00;99.90;;;;;;5032534;28;20504;-55
2024/01/05 07:43:05;;;;;;;6.80;2.30;;;8.80;99.90;;;;;;5032438;28;20033;-54
2024/01/05 07:45:31;;;;;;;5.03;2.17;;;8.90;99.90;;;;;;5032388;28;20109;-53
2024/01/05 07:47:58;;;;;;;3.60;0.83;;;8.90;99.90;;;;;;5032360;28;20040;-55
2024/01/05 07:50:24;;;;;;;3.43;1.23;;;8.90;99.90;;;;;;5032427;28;20083;-55
2024/01/05 07:52:51;;;;;;;4.03;0.97;;;8.90;99.90;;;;;;5032942;28;20026;-53
2024/01/05 07:55:16;;;;;;;3.97;0.90;;;8.90;99.90;;;;;;5032209;28;20037;-55
2024/01/05 07:57:43;;;;;;;4.80;1.17;;;8.90;99.90;;;;;;5031011;28;20034;-55
2024/01/05 08:00:10;;;;;;;2.50;0.60;;;8.90;99.90;;;;;;5031421;28;20048;-53
2024/01/05 08:02:35;;;;;;;5.03;0.97;;;8.90;99.90;;;;;;5031849;28;20053;-55
2024/01/05 08:05:01;;;;;;;3.03;0.80;;;8.90;99.90;;;;;;5030863;28;20509;-53
2024/01/05 08:07:26;;;;;;;23.80;9.63;;;9.00;99.90;;;;;;5032325;28;20033;-56
2024/01/05 08:09:53;;;;;;;7.27;1.67;;;8.90;99.90;;;;;;5031910;28;20378;-52
2024/01/05 08:12:21;;;;;;;2.73;0.80;;;8.90;99.90;;;;;;5032025;28;20073;-54
2024/01/05 08:14:47;;;;;;;5.13;1.05;;;8.90;99.90;;;;;;5031904;28;20076;-52
2024/01/05 08:17:13;;;;;;;3.40;1.13;;;9.00;99.90;;;;;;5030690;28;20148;-55
2024/01/05 08:19:38;;;;;;;1.13;0.57;;;9.00;99.90;;;;;;5031767;28;20036;-55
2024/01/05 08:22:04;;;;;;;6.50;0.70;;;9.00;99.90;;;;;;5031879;28;20474;-55
2024/01/05 08:24:30;;;;;;;2.23;0.77;;;9.00;99.90;;;;;;5031862;28;20033;-55
2024/01/05 08:26:55;;;;;;;2.93;0.80;;;9.00;99.90;;;;;;5031857;28;20030;-52
2024/01/05 08:29:24;;;;;;;4.23;0.70;;;9.00;99.90;;;;;;5031503;28;20037;-53
2024/01/05 08:31:49;;;;;;;1.38;0.50;;;8.90;99.90;;;;;;5031756;28;20037;-52
2024/01/05 08:34:16;;;;;;;4.17;0.90;;;9.00;99.90;;;;;;5031697;28;20049;-52
2024/01/05 08:36:42;;;;;;;3.17;0.57;;;8.90;99.90;;;;;;5031851;28;20025;-55
2024/01/05 08:39:08;;;;;;;1.60;0.60;;;9.00;99.90;;;;;;5031794;28;20084;-54
2024/01/05 08:41:33;;;;;;;3.10;0.73;;;9.10;99.90;;;;;;5031629;28;20021;-55
2024/01/05 08:43:59;;;;;;;2.67;0.47;;;9.10;99.90;;;;;;5030448;28;20034;-54
2024/01/05 08:46:28;;;;;;;2.80;0.63;;;9.00;99.90;;;;;;5031709;28;20030;-55
2024/01/05 08:48:54;;;;;;;1.73;0.40;;;9.10;99.90;;;;;;5031543;28;20033;-54
2024/01/05 08:51:19;;;;;;;1.47;0.50;;;9.10;99.90;;;;;;5031655;28;20528;-53
2024/01/05 08:53:45;;;;;;;1.53;0.50;;;9.20;99.90;;;;;;5031560;28;20037;-51
2024/01/05 08:56:11;;;;;;;1.93;0.70;;;9.10;99.90;;;;;;5031582;28;20034;-55
2024/01/05 08:58:36;;;;;;;1.80;0.57;;;9.10;99.90;;;;;;5031210;28;20146;-55
2024/01/05 09:01:02;;;;;;;0.77;0.23;;;9.10;99.90;;;;;;5031539;28;20093;-53
2024/01/05 09:03:28;;;;;;;1.77;0.30;;;9.10;99.90;;;;;;5031457;28;20045;-52
2024/01/05 09:05:54;;;;;;;1.40;0.40;;;9.10;99.90;;;;;;5031628;28;20026;-54
2024/01/05 09:08:19;;;;;;;1.50;0.40;;;9.00;99.90;;;;;;5031500;28;20057;-54
2024/01/05 09:10:45;;;;;;;0.83;0.27;;;9.00;99.90;;;;;;5031421;28;20026;-55
2024/01/05 09:13:10;;;;;;;0.60;0.20;;;9.00;99.90;;;;;;5034057;28;20490;-53
2024/01/05 09:15:36;;;;;;;2.47;0.20;;;8.90;99.90;;;;;;5035161;28;20033;-55
2024/01/05 09:18:02;;;;;;;0.60;0.20;;;8.90;99.90;;;;;;5035184;28;20463;-52
2024/01/05 09:20:28;;;;;;;0.40;0.10;;;8.90;99.90;;;;;;5034934;28;20117;-55
2024/01/05 09:22:54;;;;;;;0.37;0.20;;;8.90;99.90;;;;;;5035132;28;20116;-54
2024/01/05 09:25:19;;;;;;;0.20;0.10;;;8.80;99.90;;;;;;5035156;28;20075;-55
2024/01/05 09:27:45;;;;;;;2.27;0.20;;;8.80;99.90;;;;;;5034898;28;20478;-51
2024/01/05 09:30:10;;;;;;;0.40;0.10;;;8.80;99.90;;;;;;5034861;28;20061;-50
2024/01/05 09:32:36;;;;;;;0.67;0.10;;;8.80;99.90;;;;;;5034888;28;20068;-55
2024/01/05 09:35:02;;;;;;;0.67;0.17;;;8.70;99.90;;;;;;5034846;28;20033;-54
2024/01/05 09:37:28;;;;;;;0.23;0.10;;;8.70;99.90;;;;;;5034911;28;20057;-52
2024/01/05 09:39:54;;;;;;;2.63;0.43;;;8.70;99.90;;;;;;5033228;28;20065;-54
2024/01/05 09:42:19;;;;;;;0.33;0.20;;;8.80;99.90;;;;;;5034646;28;20026;-55
2024/01/05 09:44:46;;;;;;;0.40;0.23;;;8.70;99.90;;;;;;5034795;28;20035;-54
2024/01/05 09:47:14;;;;;;;1.17;0.30;;;8.70;99.90;;;;;;5034725;28;20033;-55
2024/01/05 09:49:44;;;;;;;1.20;0.20;;;8.70;99.90;;;;;;5034518;28;20044;-53
2024/01/05 09:52:12;;;;;;;0.17;0.10;;;8.60;99.90;;;;;;5034694;28;20033;-55
2024/01/05 09:54:38;;;;;;;0.53;0.10;;;8.60;99.90;;;;;;5034424;28;20033;-55
2024/01/05 09:57:05;;;;;;;0.20;0.10;;;8.60;99.90;;;;;;5034543;28;20363;-54
2024/01/05 09:59:31;;;;;;;0.30;0.10;;;8.60;99.90;;;;;;5032955;28;20078;-54
2024/01/05 10:02:00;;;;;;;0.10;0.10;;;8.60;99.90;;;;;;5034463;28;20029;-54
2024/01/05 10:04:26;;;;;;;0.40;0.20;;;8.60;99.90;;;;;;5034418;28;20038;-55
2024/01/05 10:07:02;;;;;;;2.00;0.10;;;8.60;99.90;;;;;;5034439;28;20033;-55
2024/01/05 10:09:31;;;;;;;1.77;0.23;;;8.60;99.90;;;;;;5034047;28;20171;-51
2024/01/05 10:11:57;;;;;;;0.10;0.10;;;8.60;99.90;;;;;;5034206;28;20037;-54
2024/01/05 10:14:27;;;;;;;1.60;0.20;;;8.60;99.90;;;;;;5034331;28;20039;-55
2024/01/05 10:17:13;;;;;;;0.20;0.20;;;8.60;99.90;;;;;;5034372;28;20033;-52
2024/01/05 10:19:41;;;;;;;0.43;0.20;;;8.60;99.90;;;;;;5033585;28;20048;-54
2024/01/05 10:22:13;;;;;;;0.10;0.10;;;8.70;99.90;;;;;;5034035;28;20050;-55
2024/01/05 10:24:40;;;;;;;0.30;0.10;;;8.70;99.90;;;;;;5033184;28;20080;-54
2024/01/05 10:27:08;;;;;;;1.70;0.37;;;8.60;99.90;;;;;;5033938;28;20066;-53
2024/01/05 10:29:36;;;;;;;4.50;0.63;;;8.60;99.90;;;;;;5033778;28;20402;-55
2024/01/05 10:32:20;;;;;;;0.50;0.20;;;8.60;99.90;;;;;;5033686;28;20033;-55
2024/01/05 10:34:48;;;;;;;0.87;0.10;;;8.60;99.90;;;;;;5033845;28;20087;-50
2024/01/05 10:37:19;;;;;;;0.37;0.17;;;8.60;99.90;;;;;;5033818;28;20053;-55
2024/01/05 10:39:46;;;;;;;1.37;0.20;;;8.60;99.90;;;;;;5033403;28;20075;-55
2024/01/05 10:42:29;;;;;;;0.77;0.50;;;8.60;99.90;;;;;;5033572;28;20030;-52
2024/01/05 10:44:59;;;;;;;0.87;0.20;;;8.50;99.90;;;;;;5033684;28;20371;-53
2024/01/05 10:47:26;;;;;;;0.70;0.20;;;8.60;99.90;;;;;;5033610;28;20037;-55
2024/01/05 10:49:55;;;;;;;2.83;0.30;;;8.60;99.90;;;;;;5033283;28;20132;-54
2024/01/05 10:52:30;;;;;;;0.93;0.20;;;8.50;99.90;;;;;;5032162;28;20038;-55
2024/01/05 10:55:02;;;;;;;1.30;0.37;;;8.50;99.90;;;;;;5033377;28;20443;-55
2024/01/05 10:57:29;;;;;;;0.30;0.20;;;8.60;99.90;;;;;;5033505;28;20047;-54
2024/01/05 10:59:56;;;;;;;0.77;0.40;;;8.60;99.90;;;;;;5033101;28;20034;-55
2024/01/05 11:02:38;;;;;;;0.60;0.33;;;8.60;99.90;;;;;;5033302;28;20056;-56
2024/01/05 11:05:10;;;;;;;1.20;0.97;;;8.60;99.90;;;;;;5033366;28;20482;-54
2024/01/05 11:07:37;;;;;;;3.50;0.50;;;8.60;99.90;;;;;;5033080;28;20445;-54
2024/01/05 11:10:27;;;;;;;0.83;0.33;;;8.50;99.90;;;;;;5032911;28;20554;-54
2024/01/05 11:13:29;;;;;;;1.27;0.20;;;8.60;99.90;;;;;;5033047;28;20479;-55
2024/01/05 11:16:25;;;;;;;0.20;0.03;;;8.50;99.90;;;;;;5032997;28;20442;-54
2024/01/05 11:19:19;;;;;;;0.27;0.20;;;8.50;99.90;;;;;;5032621;28;20037;-55
2024/01/05 11:21:45;;;;;;;1.03;0.33;;;8.40;99.90;;;;;;5032917;28;20029;-51
2024/01/05 11:24:13;;;;;;;0.83;0.37;;;8.40;99.90;;;;;;5032741;28;20090;-55
2024/01/05 11:26:42;;;;;;;1.20;0.50;;;8.30;99.90;;;;;;5032729;28;20033;-53
2024/01/05 11:29:15;;;;;;;2.70;0.30;;;8.30;99.90;;;;;;5032579;28;20040;-53
2024/01/05 11:31:46;;;;;;;0.40;0.37;;;8.20;99.90;;;;;;5032707;28;20514;-52
2024/01/05 11:34:37;;;;;;;1.43;0.40;;;8.20;99.90;;;;;;5032541;28;20033;-55
2024/01/05 11:37:05;;;;;;;0.20;0.20;;;8.20;99.90;;;;;;5032946;28;20485;-55
2024/01/05 11:39:48;;;;;;;2.37;0.20;;;8.30;99.90;;;;;;5032297;28;20037;-53
2024/01/05 11:42:27;;;;;;;2.70;0.57;;;8.30;99.90;;;;;;5032429;28;20104;-55
2024/01/05 11:44:53;;;;;;;1.75;0.28;;;8.20;99.90;;;;;;5032441;28;20033;-55
2024/01/05 11:47:41;;;;;;;4.33;0.63;;;8.20;99.90;;;;;;5031164;28;20083;-54
2024/01/05 11:50:28;;;;;;;1.00;0.67;;;8.20;99.90;;;;;;5032308;28;20025;-56
2024/01/05 11:53:16;;;;;;;3.47;0.40;;;8.20;99.90;;;;;;5032355;28;20034;-54
2024/01/05 11:55:56;;;;;;;0.55;0.30;;;8.20;99.90;;;;;;5032335;28;20057;-55
2024/01/05 11:58:31;;;;;;;0.80;0.20;;;8.20;99.90;;;;;;5032180;28;20029;-56
2024/01/05 12:00:58;;;;;;;2.03;0.60;;;8.10;99.90;;;;;;5032211;28;20030;-55
2024/01/05 12:03:25;;;;;;;1.50;0.50;;;8.10;99.90;;;;;;5032231;28;20421;-56
2024/01/05 12:05:55;;;;;;;1.93;0.43;;;8.10;99.90;;;;;;5032170;28;20427;-55
2024/01/05 12:08:21;;;;;;;1.50;0.43;;;8.00;99.90;;;;;;5032262;28;20455;-53
2024/01/05 12:10:53;;;;;;;1.50;0.50;;;8.00;99.90;;;;;;5032028;28;20031;-55
2024/01/05 12:13:24;;;;;;;0.50;0.30;;;7.90;99.90;;;;;;5032029;28;20108;-55
2024/01/05 12:15:54;;;;;;;4.17;0.70;;;8.00;99.90;;;;;;5032044;28;20037;-55
2024/01/05 12:18:25;;;;;;;;;;;8.00;99.90;;;;;;5032483;28;20044;-54
2024/01/05 12:20:55;;;;;;;2.07;0.40;;;8.00;99.90;;;;;;5031961;28;19908;-54
2024/01/05 12:23:21;;;;;;;0.40;0.40;;;8.00;99.90;;;;;;5031909;28;20021;-56
2024/01/05 12:26:04;;;;;;;1.30;0.30;;;8.10;99.90;;;;;;5031946;28;20038;-53
2024/01/05 12:28:33;;;;;;;0.47;0.23;;;8.10;99.90;;;;;;5031744;28;20095;-52
2024/01/05 12:30:59;;;;;;;5.03;0.47;;;8.00;99.90;;;;;;5031766;28;20108;-53
2024/01/05 12:33:26;;;;;;;1.77;0.43;;;8.10;99.90;;;;;;5031766;28;20355;-56
2024/01/05 12:35:52;;;;;;;2.70;0.57;;;8.10;99.90;;;;;;5031716;28;20494;-56
2024/01/05 12:38:30;;;;;;;3.00;0.50;;;8.10;99.90;;;;;;5031789;28;20108;-56
2024/01/05 12:41:05;;;;;;;2.93;0.60;;;8.00;99.90;;;;;;5031670;28;20025;-54
2024/01/05 12:43:30;;;;;;;2.90;0.70;;;7.90;99.90;;;;;;5031713;28;20029;-52
2024/01/05 12:46:00;;;;;;;1.43;0.57;;;7.80;99.90;;;;;;5031752;28;20083;-55
2024/01/05 12:48:26;;;;;;;3.90;0.63;;;7.70;99.90;;;;;;5034931;28;20041;-56
2024/01/05 12:51:12;;;;;;;1.97;0.60;;;7.70;99.90;;;;;;5035719;28;20379;-53
2024/01/05 12:53:37;;;;;;;4.07;0.60;;;7.60;99.90;;;;;;5035530;28;20079;-56
2024/01/05 12:56:07;;;;;;;2.33;0.37;;;7.60;99.90;;;;;;5035770;28;20445;-54
2024/01/05 12:58:44;;;;;;;3.70;0.63;;;7.50;99.90;;;;;;5035587;28;20064;-56